Pagrindinis puslapis
METAR-TAF:

METAR-TAF

Oro uostai :

Uagadugu oro uostas

Uagadugu, Burkina Fasas

platuma: 12-21N, ilguma: 001-31W, Aukštis: 316 m

Dabartinis oras

Ataskaita buvo paskelbta 1 valandą ir 23 minutes, ne 03:00 UTC
Vėjas 7 kt iš Rytų/Šiaurės Rytų
Temperatūra 24°C
Drėgmė 20%
Slėgis 1011 hPa
Matomumas 10 km arba daugiau
nėra debesų žemiau 1500 m ir nėra kamuolinių lietaus debesų

METAR: DFFD 220300Z 07007KT CAVOK 24/00 Q1011 NOSIG

Laikas: 04:23 (04:23 UTC)

Prognozė

Ataskaita buvo paskelbta 5 valandos ir 23 minutes, ne 23:00 UTC
Prognozė galioja nuo 22 metu 00 UTC su 23 metu 06 UTC
Vėjas 10 kt iš Šiaurės Rytų
Matomumas: 8000 m
Laikinai
nuo 22 metu 06 UTC su 22 metu 10 UTC
Matomumas: 4000 m
dulkės
Laikinai
nuo 22 metu 17 UTC su 22 metu 21 UTC
Matomumas: 4000 m
dulkės

TAF: DFFD 212300Z 2200/2306 04010KT 8000 NSC TEMPO 2206/2210 4000 DU TEMPO 2217/2221 4000 DU

Orai ataskaitas ir orų prognozės (METAR, TAF).

turimą stotys yra geltonos ir raudonos taškus žemėlapyje.

Perkelti pele per norėdami pamatyti stoties vardą.

Tada spustelėkite, norėdami matyti oro stebėjimo ir prognozės.

Norėdami pakeisti žemėlapį: spustelėkite ant žalios mygtukų su juodo kryžiaus žemyn,; žalią mygtuką su brūkšneliu, jei norite nutolinti; arba žalių rodyklių gretimoms žemėlapius.


METAR-TAF: